Cic Rolaco — V7ZO8 — position and weather

sailwx.info

Track history (hours):
 
Tides and Currents Weather Stations Pressure Air Temp Water Temp Dewpoint Dewpoint Depression Visibility Wind Speed Wind Dir Waves Ship Positions

Cic Rolaco

Last reported at 2017-Oct-12 22:09 UTC. Time now 2017-Oct-22 15:29 UTC.
Position N 17°04' W 061°08'.
Warning: this ship's position is 9 days out of date.

Length 292 m; draft 17.2 m.

Type: Cargo ship. MMSI: 538004881.

Date/timePositionNaut miles runAvg speedWind from/ knotsBaromVisibWave heightAir tempDewpointWater temp
2017-Oct-12 22:09N 17°04' W 061°08'211.3
2017-Oct-12 22:00N 17°04' W 061°10'611.2
2017-Oct-12 21:30N 17°01' W 061°15'611.2
2017-Oct-12 21:00N 16°58' W 061°20'511.0
2017-Oct-12 20:30N 16°55' W 061°25'611.2
2017-Oct-12 20:00N 16°52' W 061°30'611.3
2017-Oct-12 19:30N 16°49' W 061°35'611.1
2017-Oct-12 19:00N 16°47' W 061°40'611.3
2017-Oct-12 18:30N 16°44' W 061°45'611.4
2017-Oct-12 18:00N 16°41' W 061°50'611.5
2017-Oct-12 17:30N 16°38' W 061°55'611.5
2017-Oct-12 17:00N 16°35' W 062°00'611.5
2017-Oct-12 16:30N 16°33' W 062°06'611.7
2017-Oct-12 16:00N 16°30' W 062°11'611.7
2017-Oct-12 15:30N 16°28' W 062°17'611.5
2017-Oct-12 15:00N 16°26' W 062°22'611.4
2017-Oct-12 14:30N 16°23' W 062°28'511.3
2017-Oct-12 14:00N 16°21' W 062°33'611.3
2017-Oct-12 13:30N 16°19' W 062°39'611.2
2017-Oct-12 13:00N 16°17' W 062°44'  
2017-Oct-09 22:08N 11°24' W 074°09'212.2
2017-Oct-09 21:59N 11°23' W 074°10'611.5
2017-Oct-09 21:26N 11°18' W 074°15'511.6
2017-Oct-09 21:00N 11°14' W 074°16'510.4
2017-Oct-09 20:30N 11°08' W 074°17'2 1.8
2017-Oct-09 19:38N 11°07' W 074°17'0 0.1
2017-Oct-09 17:59N 11°07' W 074°18'  
2017-Oct-04 03:21N 16°17' W 062°44'412.6
2017-Oct-04 03:00N 16°19' W 062°39'612.4
2017-Oct-04 02:30N 16°21' W 062°33'612.2
2017-Oct-04 02:00N 16°24' W 062°28'812.3
2017-Oct-04 01:21N 16°27' W 062°20'3812.8
2017-Oct-03 22:21N 16°44' W 061°44'412.7
2017-Oct-03 22:00N 16°46' W 061°40'612.8
2017-Oct-03 21:30N 16°49' W 061°34'612.8
2017-Oct-03 21:00N 16°53' W 061°29'612.6
2017-Oct-03 20:30N 16°56' W 061°23'612.6
2017-Oct-03 20:00N 16°59' W 061°17'812.6
2017-Oct-03 19:21N 17°03' W 061°10'412.4
2017-Oct-03 19:00N 17°06' W 061°06'612.4
2017-Oct-03 18:30N 17°09' W 061°01'  
Track history (hours):
 
Tides and Currents Weather Stations Pressure Air Temp Water Temp Dewpoint Dewpoint Depression Visibility Wind Speed Wind Dir Waves Ship Positions

Cic Rolaco

Last reported at 2017-Oct-12 22:09 UTC. Time now 2017-Oct-22 15:29 UTC.
Position N 17°04' W 061°08'.
Warning: this ship's position is 9 days out of date.

Length 292 m; draft 17.2 m.

Type: Cargo ship. MMSI: 538004881.

Date/timePositionNaut miles runAvg speedWind from/ knotsBaromVisibWave heightAir tempDewpointWater temp
2017-Oct-12 22:09N 17°04' W 061°08'211.3
2017-Oct-12 22:00N 17°04' W 061°10'611.2
2017-Oct-12 21:30N 17°01' W 061°15'611.2
2017-Oct-12 21:00N 16°58' W 061°20'511.0
2017-Oct-12 20:30N 16°55' W 061°25'611.2
2017-Oct-12 20:00N 16°52' W 061°30'611.3
2017-Oct-12 19:30N 16°49' W 061°35'611.1
2017-Oct-12 19:00N 16°47' W 061°40'611.3
2017-Oct-12 18:30N 16°44' W 061°45'611.4
2017-Oct-12 18:00N 16°41' W 061°50'611.5
2017-Oct-12 17:30N 16°38' W 061°55'611.5
2017-Oct-12 17:00N 16°35' W 062°00'611.5
2017-Oct-12 16:30N 16°33' W 062°06'611.7
2017-Oct-12 16:00N 16°30' W 062°11'611.7
2017-Oct-12 15:30N 16°28' W 062°17'611.5
2017-Oct-12 15:00N 16°26' W 062°22'611.4
2017-Oct-12 14:30N 16°23' W 062°28'511.3
2017-Oct-12 14:00N 16°21' W 062°33'611.3
2017-Oct-12 13:30N 16°19' W 062°39'611.2
2017-Oct-12 13:00N 16°17' W 062°44'  
2017-Oct-09 22:08N 11°24' W 074°09'212.2
2017-Oct-09 21:59N 11°23' W 074°10'611.5
2017-Oct-09 21:26N 11°18' W 074°15'511.6
2017-Oct-09 21:00N 11°14' W 074°16'510.4
2017-Oct-09 20:30N 11°08' W 074°17'2 1.8
2017-Oct-09 19:38N 11°07' W 074°17'0 0.1
2017-Oct-09 17:59N 11°07' W 074°18'  
2017-Oct-04 03:21N 16°17' W 062°44'412.6
2017-Oct-04 03:00N 16°19' W 062°39'612.4
2017-Oct-04 02:30N 16°21' W 062°33'612.2
2017-Oct-04 02:00N 16°24' W 062°28'812.3
2017-Oct-04 01:21N 16°27' W 062°20'3812.8
2017-Oct-03 22:21N 16°44' W 061°44'412.7
2017-Oct-03 22:00N 16°46' W 061°40'612.8
2017-Oct-03 21:30N 16°49' W 061°34'612.8
2017-Oct-03 21:00N 16°53' W 061°29'612.6
2017-Oct-03 20:30N 16°56' W 061°23'612.6
2017-Oct-03 20:00N 16°59' W 061°17'812.6
2017-Oct-03 19:21N 17°03' W 061°10'412.4
2017-Oct-03 19:00N 17°06' W 061°06'612.4
2017-Oct-03 18:30N 17°09' W 061°01'  

Dump ship's entire track history